Time,TemperatureF,DewpointF,PressureIn,WindDirection,WindDirectionDegrees,WindSpeedMPH,WindSpeedGustMPH,Humidity,HourlyPrecipIn,Conditions,Clouds,dailyrainin,SoftwareType,DateUTC
2013-07-13 00:05:00,65.0,59.7,30.03,NE,40,1.0,-999.0,83,0.00,,,0.00,Wunderground v.1.15,2013-07-13 04:05:00,
2013-07-13 00:10:00,64.9,59.6,30.03,NE,40,1.0,-999.0,83,0.00,,,0.00,Wunderground v.1.15,2013-07-13 04:10:00,
2013-07-13 00:15:00,64.8,59.9,30.03,NE,40,1.0,-999.0,84,0.00,,,0.00,Wunderground v.1.15,2013-07-13 04:15:00,
2013-07-13 00:25:00,64.7,59.8,30.03,NE,40,1.0,-999.0,84,0.00,,,0.00,Wunderground v.1.15,2013-07-13 04:25:00,
2013-07-13 00:30:00,64.6,59.7,30.03,NE,40,2.0,-999.0,84,0.00,,,0.00,Wunderground v.1.15,2013-07-13 04:30:00,
2013-07-13 00:35:00,64.6,59.7,30.03,NE,40,1.0,-999.0,84,0.00,,,0.00,Wunderground v.1.15,2013-07-13 04:35:00,
2013-07-13 00:40:00,64.6,59.7,30.03,NE,40,1.0,-999.0,84,0.00,,,0.00,Wunderground v.1.15,2013-07-13 04:40:00,
2013-07-13 00:45:00,64.6,59.7,30.03,NE,40,1.0,-999.0,84,0.00,,,0.00,Wunderground v.1.15,2013-07-13 04:45:00,
2013-07-13 00:50:00,64.7,59.8,30.03,NE,40,1.0,-999.0,84,0.00,,,0.00,Wunderground v.1.15,2013-07-13 04:50:00,
2013-07-13 01:00:00,64.5,59.6,30.03,NE,40,0.0,-999.0,84,0.00,,,0.00,Wunderground v.1.15,2013-07-13 05:00:00,
2013-07-13 01:10:00,64.3,59.4,30.04,NE,40,0.0,-999.0,84,0.00,,,0.00,Wunderground v.1.15,2013-07-13 05:10:00,
2013-07-13 01:15:00,64.2,59.3,30.03,NE,40,0.0,-999.0,84,0.00,,,0.00,Wunderground v.1.15,2013-07-13 05:15:00,
2013-07-13 01:20:00,64.3,59.4,30.03,NE,40,0.0,-999.0,84,0.00,,,0.00,Wunderground v.1.15,2013-07-13 05:20:00,
2013-07-13 01:25:00,64.3,59.4,30.03,NE,40,0.0,-999.0,84,0.00,,,0.00,Wunderground v.1.15,2013-07-13 05:25:00,
2013-07-13 01:30:00,64.4,59.1,30.03,NE,40,0.0,-999.0,83,0.00,,,0.00,Wunderground v.1.15,2013-07-13 05:30:00,
2013-07-13 01:35:00,64.5,59.2,30.03,NE,40,1.0,-999.0,83,0.00,,,0.00,Wunderground v.1.15,2013-07-13 05:35:00,
2013-07-13 01:45:00,64.4,59.1,30.03,NE,40,2.0,-999.0,83,0.00,,,0.00,Wunderground v.1.15,2013-07-13 05:45:00,
2013-07-13 01:50:00,64.3,59.0,30.03,NE,40,2.0,-999.0,83,0.00,,,0.00,Wunderground v.1.15,2013-07-13 05:50:00,
2013-07-13 01:55:00,64.3,59.0,30.03,NE,40,3.0,-999.0,83,0.00,,,0.00,Wunderground v.1.15,2013-07-13 05:55:00,
2013-07-13 02:00:00,64.2,59.3,30.03,NE,40,3.0,-999.0,84,0.00,,,0.00,Wunderground v.1.15,2013-07-13 06:00:00,
2013-07-13 02:10:00,64.1,59.2,30.03,NE,40,2.0,-999.0,84,0.00,,,0.00,Wunderground v.1.15,2013-07-13 06:10:00,
2013-07-13 02:15:00,64.1,59.2,30.03,NE,40,1.0,-999.0,84,0.00,,,0.00,Wunderground v.1.15,2013-07-13 06:15:00,
2013-07-13 02:20:00,64.1,59.2,30.03,NE,40,2.0,-999.0,84,0.00,,,0.00,Wunderground v.1.15,2013-07-13 06:20:00,
2013-07-13 02:25:00,64.1,59.2,30.03,NE,40,2.0,-999.0,84,0.00,,,0.00,Wunderground v.1.15,2013-07-13 06:25:00,
2013-07-13 02:35:00,64.2,59.3,30.02,NE,40,1.0,-999.0,84,0.00,,,0.00,Wunderground v.1.15,2013-07-13 06:35:00,
2013-07-13 02:40:00,64.2,59.3,30.02,NE,40,1.0,-999.0,84,0.00,,,0.00,Wunderground v.1.15,2013-07-13 06:40:00,
2013-07-13 02:45:00,64.2,59.3,30.02,NE,40,1.0,-999.0,84,0.00,,,0.00,Wunderground v.1.15,2013-07-13 06:45:00,
2013-07-13 02:50:00,64.3,59.4,30.02,NE,40,0.0,-999.0,84,0.00,,,0.00,Wunderground v.1.15,2013-07-13 06:50:00,
2013-07-13 02:55:00,64.2,59.6,30.02,NE,40,0.0,-999.0,85,0.00,,,0.00,Wunderground v.1.15,2013-07-13 06:55:00,
2013-07-13 03:00:00,64.1,59.2,30.02,NE,40,0.0,-999.0,84,0.00,,,0.00,Wunderground v.1.15,2013-07-13 07:00:00,
2013-07-13 03:10:00,63.9,59.3,30.02,NE,40,0.0,-999.0,85,0.00,,,0.00,Wunderground v.1.15,2013-07-13 07:10:00,
2013-07-13 03:15:00,63.8,59.2,30.02,NE,40,0.0,-999.0,85,0.00,,,0.00,Wunderground v.1.15,2013-07-13 07:15:00,
2013-07-13 03:20:00,63.8,59.5,30.02,NE,40,0.0,-999.0,86,0.00,,,0.00,Wunderground v.1.15,2013-07-13 07:20:00,
2013-07-13 03:25:00,63.8,59.5,30.02,NE,40,0.0,-999.0,86,0.00,,,0.00,Wunderground v.1.15,2013-07-13 07:25:00,
2013-07-13 03:30:00,63.6,59.3,30.02,NE,40,0.0,-999.0,86,0.00,,,0.00,Wunderground v.1.15,2013-07-13 07:30:00,
2013-07-13 03:40:00,63.3,59.0,30.01,NE,40,3.0,-999.0,86,0.00,,,0.00,Wunderground v.1.15,2013-07-13 07:40:00,
2013-07-13 03:45:00,63.1,58.8,30.01,NE,40,2.0,-999.0,86,0.00,,,0.00,Wunderground v.1.15,2013-07-13 07:45:00,
2013-07-13 03:50:00,63.0,59.1,30.01,NE,40,2.0,-999.0,87,0.00,,,0.00,Wunderground v.1.15,2013-07-13 07:50:00,
2013-07-13 03:55:00,62.8,58.9,30.02,NE,40,2.0,-999.0,87,0.00,,,0.00,Wunderground v.1.15,2013-07-13 07:55:00,
2013-07-13 04:00:00,62.7,58.8,30.02,NE,40,1.0,-999.0,87,0.00,,,0.00,Wunderground v.1.15,2013-07-13 08:00:00,
2013-07-13 04:10:00,62.6,59.0,30.02,NE,40,0.0,-999.0,88,0.00,,,0.00,Wunderground v.1.15,2013-07-13 08:10:00,
2013-07-13 04:15:00,62.6,59.0,30.02,NE,40,0.0,-999.0,88,0.00,,,0.00,Wunderground v.1.15,2013-07-13 08:15:00,
2013-07-13 04:20:00,62.7,59.4,30.02,NE,40,0.0,-999.0,89,0.00,,,0.00,Wunderground v.1.15,2013-07-13 08:20:00,
2013-07-13 04:25:00,62.9,59.6,30.03,NE,40,0.0,-999.0,89,0.00,,,0.00,Wunderground v.1.15,2013-07-13 08:25:00,
2013-07-13 04:30:00,63.1,60.1,30.02,NE,40,1.0,-999.0,90,0.00,,,0.00,Wunderground v.1.15,2013-07-13 08:30:00,
2013-07-13 04:35:00,63.2,60.2,30.03,NE,40,2.0,-999.0,90,0.00,,,0.00,Wunderground v.1.15,2013-07-13 08:35:00,
2013-07-13 04:45:00,63.0,60.0,30.02,NE,40,0.0,-999.0,90,0.00,,,0.00,Wunderground v.1.15,2013-07-13 08:45:00,
2013-07-13 04:50:00,62.9,59.9,30.03,NE,40,1.0,-999.0,90,0.00,,,0.00,Wunderground v.1.15,2013-07-13 08:50:00,
2013-07-13 04:55:00,62.8,60.1,30.03,NE,40,0.0,-999.0,91,0.00,,,0.00,Wunderground v.1.15,2013-07-13 08:55:00,
2013-07-13 05:00:00,62.7,60.0,30.03,NE,40,0.0,-999.0,91,0.00,,,0.00,Wunderground v.1.15,2013-07-13 09:00:00,
2013-07-13 05:10:00,62.6,59.9,30.03,NE,40,0.0,-999.0,91,0.00,,,0.00,Wunderground v.1.15,2013-07-13 09:10:00,
2013-07-13 05:15:00,62.5,60.1,30.03,NE,40,0.0,-999.0,92,0.00,,,0.00,Wunderground v.1.15,2013-07-13 09:15:00,
2013-07-13 05:20:00,62.5,60.1,30.03,NE,40,0.0,-999.0,92,0.00,,,0.00,Wunderground v.1.15,2013-07-13 09:20:00,
2013-07-13 05:25:00,62.5,60.1,30.03,NE,40,0.0,-999.0,92,0.00,,,0.00,Wunderground v.1.15,2013-07-13 09:25:00,
2013-07-13 05:30:00,62.4,60.0,30.03,NE,40,0.0,-999.0,92,0.00,,,0.00,Wunderground v.1.15,2013-07-13 09:30:00,
2013-07-13 05:35:00,62.3,59.9,30.03,NE,40,0.0,-999.0,92,0.00,,,0.00,Wunderground v.1.15,2013-07-13 09:35:00,
2013-07-13 05:40:00,62.1,59.7,30.03,NE,40,1.0,-999.0,92,0.00,,,0.00,Wunderground v.1.15,2013-07-13 09:40:00,
2013-07-13 05:50:00,61.9,59.9,30.04,NE,40,1.0,-999.0,93,0.00,,,0.00,Wunderground v.1.15,2013-07-13 09:50:00,
2013-07-13 05:55:00,61.8,59.8,30.04,NE,40,0.0,-999.0,93,0.00,,,0.00,Wunderground v.1.15,2013-07-13 09:55:00,
2013-07-13 06:00:00,61.7,59.7,30.04,NE,40,0.0,-999.0,93,0.00,,,0.00,Wunderground v.1.15,2013-07-13 10:00:00,
2013-07-13 06:10:00,62.0,60.3,30.04,NE,40,1.0,-999.0,94,0.00,,,0.00,Wunderground v.1.15,2013-07-13 10:10:00,
2013-07-13 06:20:00,62.1,60.4,30.03,NE,40,1.0,-999.0,94,0.00,,,0.00,Wunderground v.1.15,2013-07-13 10:20:00,
2013-07-13 06:25:00,62.2,60.5,30.03,NE,40,2.0,-999.0,94,0.00,,,0.00,Wunderground v.1.15,2013-07-13 10:25:00,
2013-07-13 06:30:00,62.3,60.6,30.03,NE,40,2.0,-999.0,94,0.00,,,0.00,Wunderground v.1.15,2013-07-13 10:30:00,
2013-07-13 06:35:00,62.5,60.7,30.03,NE,40,1.0,-999.0,94,0.00,,,0.00,Wunderground v.1.15,2013-07-13 10:35:00,
2013-07-13 06:40:00,62.8,61.3,30.03,NE,40,0.0,-999.0,95,0.00,,,0.00,Wunderground v.1.15,2013-07-13 10:40:00,
2013-07-13 06:45:00,63.1,61.6,30.03,NE,40,0.0,-999.0,95,0.00,,,0.00,Wunderground v.1.15,2013-07-13 10:45:00,
2013-07-13 06:55:00,63.5,62.0,30.04,NE,40,0.0,-999.0,95,0.00,,,0.00,Wunderground v.1.15,2013-07-13 10:55:00,
2013-07-13 07:10:00,63.5,62.0,30.05,NE,40,1.0,-999.0,95,0.00,,,0.00,Wunderground v.1.15,2013-07-13 11:10:00,
2013-07-13 07:15:00,63.2,61.7,30.05,NE,40,1.0,-999.0,95,0.00,,,0.00,Wunderground v.1.15,2013-07-13 11:15:00,
2013-07-13 07:20:00,63.4,61.9,30.05,NE,40,0.0,-999.0,95,0.00,,,0.00,Wunderground v.1.15,2013-07-13 11:20:00,
2013-07-13 07:30:00,63.7,62.2,30.05,NE,40,0.0,-999.0,95,0.00,,,0.00,Wunderground v.1.15,2013-07-13 11:30:00,
2013-07-13 07:35:00,64.0,62.5,30.05,NE,40,0.0,-999.0,95,0.00,,,0.00,Wunderground v.1.15,2013-07-13 11:35:00,
2013-07-13 07:40:00,64.3,62.8,30.05,NE,40,0.0,-999.0,95,0.00,,,0.00,Wunderground v.1.15,2013-07-13 11:40:00,
2013-07-13 07:45:00,64.4,62.9,30.05,NE,40,1.0,-999.0,95,0.00,,,0.00,Wunderground v.1.15,2013-07-13 11:45:00,
2013-07-13 07:50:00,64.7,63.2,30.05,NE,40,0.0,-999.0,95,0.00,,,0.00,Wunderground v.1.15,2013-07-13 11:50:00,
2013-07-13 07:55:00,64.9,63.4,30.05,NE,40,0.0,-999.0,95,0.00,,,0.00,Wunderground v.1.15,2013-07-13 11:55:00,
2013-07-13 08:00:00,65.1,63.6,30.05,NE,40,0.0,-999.0,95,0.00,,,0.00,Wunderground v.1.15,2013-07-13 12:00:00,
2013-07-13 08:10:00,65.3,63.5,30.05,NE,40,0.0,-999.0,94,0.00,,,0.00,Wunderground v.1.15,2013-07-13 12:10:00,
2013-07-13 08:15:00,65.5,63.7,30.05,NE,40,0.0,-999.0,94,0.00,,,0.00,Wunderground v.1.15,2013-07-13 12:15:00,
2013-07-13 08:20:00,65.7,63.9,30.05,NE,40,0.0,-999.0,94,0.00,,,0.00,Wunderground v.1.15,2013-07-13 12:20:00,
2013-07-13 08:25:00,66.2,64.4,30.05,NE,40,0.0,-999.0,94,0.00,,,0.00,Wunderground v.1.15,2013-07-13 12:25:00,
2013-07-13 08:35:00,67.2,64.8,30.05,NE,40,1.0,-999.0,92,0.00,,,0.00,Wunderground v.1.15,2013-07-13 12:35:00,
2013-07-13 08:40:00,67.5,64.8,30.05,NE,40,1.0,-999.0,91,0.00,,,0.00,Wunderground v.1.15,2013-07-13 12:40:00,
2013-07-13 08:45:00,67.8,64.8,30.06,NE,40,1.0,-999.0,90,0.00,,,0.00,Wunderground v.1.15,2013-07-13 12:45:00,
2013-07-13 08:50:00,68.4,65.0,30.06,NE,40,0.0,-999.0,89,0.00,,,0.00,Wunderground v.1.15,2013-07-13 12:50:00,
2013-07-13 08:55:00,68.8,65.1,30.06,NE,40,0.0,-999.0,88,0.00,,,0.00,Wunderground v.1.15,2013-07-13 12:55:00,
2013-07-13 09:00:00,69.0,65.0,30.06,NE,40,1.0,-999.0,87,0.00,,,0.00,Wunderground v.1.15,2013-07-13 13:00:00,
2013-07-13 09:10:00,69.3,65.3,30.06,NE,40,2.0,-999.0,87,0.00,,,0.00,Wunderground v.1.15,2013-07-13 13:10:00,
2013-07-13 09:15:00,69.1,65.1,30.06,NE,40,2.0,-999.0,87,0.00,,,0.00,Wunderground v.1.15,2013-07-13 13:15:00,
2013-07-13 09:20:00,69.0,65.0,30.06,NE,40,2.0,-999.0,87,0.00,,,0.00,Wunderground v.1.15,2013-07-13 13:20:00,
2013-07-13 09:25:00,69.2,65.2,30.06,NE,40,2.0,-999.0,87,0.00,,,0.00,Wunderground v.1.15,2013-07-13 13:25:00,
2013-07-13 09:30:00,69.1,64.7,30.06,NE,40,2.0,-999.0,86,0.00,,,0.00,Wunderground v.1.15,2013-07-13 13:30:00,
2013-07-13 09:35:00,69.2,64.5,30.06,NE,40,2.0,-999.0,85,0.00,,,0.00,Wunderground v.1.15,2013-07-13 13:35:00,
2013-07-13 09:40:00,69.1,64.4,30.06,NE,40,2.0,-999.0,85,0.00,,,0.00,Wunderground v.1.15,2013-07-13 13:40:00,
2013-07-13 09:45:00,69.0,64.3,30.06,NE,40,1.0,-999.0,85,0.00,,,0.00,Wunderground v.1.15,2013-07-13 13:45:00,
2013-07-13 09:50:00,69.3,64.9,30.06,NE,40,1.0,-999.0,86,0.00,,,0.00,Wunderground v.1.15,2013-07-13 13:50:00,
2013-07-13 09:55:00,69.8,65.1,30.06,NE,40,1.0,-999.0,85,0.00,,,0.00,Wunderground v.1.15,2013-07-13 13:55:00,
2013-07-13 10:00:00,70.4,65.3,30.06,NE,40,0.0,-999.0,84,0.00,,,0.00,Wunderground v.1.15,2013-07-13 14:00:00,
2013-07-13 10:10:00,70.9,65.5,30.06,NE,40,1.0,-999.0,83,0.00,,,0.00,Wunderground v.1.15,2013-07-13 14:10:00,
2013-07-13 10:15:00,71.3,65.9,30.06,NE,40,1.0,-999.0,83,0.00,,,0.00,Wunderground v.1.15,2013-07-13 14:15:00,
2013-07-13 10:20:00,71.9,65.8,30.05,NE,40,1.0,-999.0,81,0.00,,,0.00,Wunderground v.1.15,2013-07-13 14:20:00,
2013-07-13 10:25:00,72.4,65.9,30.05,NE,40,2.0,-999.0,80,0.00,,,0.00,Wunderground v.1.15,2013-07-13 14:25:00,
2013-07-13 10:30:00,72.8,66.3,30.06,NE,40,1.0,-999.0,80,0.00,,,0.00,Wunderground v.1.15,2013-07-13 14:30:00,
2013-07-13 10:35:00,73.5,66.2,30.06,NE,40,1.0,-999.0,78,0.00,,,0.00,Wunderground v.1.15,2013-07-13 14:35:00,
2013-07-13 10:45:00,73.3,66.0,30.06,NE,40,2.0,-999.0,78,0.00,,,0.00,Wunderground v.1.15,2013-07-13 14:45:00,
2013-07-13 10:50:00,73.3,66.4,30.06,NE,40,1.0,-999.0,79,0.00,,,0.00,Wunderground v.1.15,2013-07-13 14:50:00,
2013-07-13 10:55:00,73.4,66.5,30.06,NE,40,1.0,-999.0,79,0.00,,,0.00,Wunderground v.1.15,2013-07-13 14:55:00,
2013-07-13 11:00:00,73.3,66.4,30.06,NE,40,2.0,-999.0,79,0.00,,,0.00,Wunderground v.1.15,2013-07-13 15:00:00,
2013-07-13 11:10:00,73.0,66.1,30.06,NE,40,2.0,-999.0,79,0.00,,,0.00,Wunderground v.1.15,2013-07-13 15:10:00,
2013-07-13 11:15:00,73.1,65.8,30.06,NE,40,3.0,-999.0,78,0.00,,,0.00,Wunderground v.1.15,2013-07-13 15:15:00,
2013-07-13 11:20:00,73.1,66.6,30.06,NE,40,3.0,-999.0,80,0.00,,,0.00,Wunderground v.1.15,2013-07-13 15:20:00,
2013-07-13 11:25:00,73.2,66.3,30.06,NE,40,3.0,-999.0,79,0.00,,,0.00,Wunderground v.1.15,2013-07-13 15:25:00,
2013-07-13 11:30:00,73.4,66.1,30.06,NE,40,2.0,-999.0,78,0.00,,,0.00,Wunderground v.1.15,2013-07-13 15:30:00,
2013-07-13 11:35:00,73.7,66.4,30.06,NE,40,1.0,-999.0,78,0.00,,,0.00,Wunderground v.1.15,2013-07-13 15:35:00,
2013-07-13 11:40:00,73.9,66.6,30.06,NE,40,2.0,-999.0,78,0.00,,,0.00,Wunderground v.1.15,2013-07-13 15:40:00,
2013-07-13 11:50:00,73.9,66.2,30.06,NE,40,3.0,-999.0,77,0.00,,,0.00,Wunderground v.1.15,2013-07-13 15:50:00,
2013-07-13 11:55:00,74.1,66.4,30.06,NE,40,2.0,-999.0,77,0.00,,,0.00,Wunderground v.1.15,2013-07-13 15:55:00,
2013-07-13 12:00:00,74.4,66.3,30.06,NE,40,2.0,-999.0,76,0.00,,,0.00,Wunderground v.1.15,2013-07-13 16:00:00,
2013-07-13 12:10:00,74.9,67.2,30.06,NE,40,3.0,-999.0,77,0.00,,,0.00,Wunderground v.1.15,2013-07-13 16:10:00,
2013-07-13 12:20:00,75.3,66.8,30.06,ENE,65,3.0,-999.0,75,0.00,,,0.00,Wunderground v.1.15,2013-07-13 16:20:00,
2013-07-13 12:25:00,75.3,67.2,30.06,ENE,64,4.0,-999.0,76,0.00,,,0.00,Wunderground v.1.15,2013-07-13 16:25:00,
2013-07-13 12:30:00,75.3,67.6,30.06,ENE,64,3.0,-999.0,77,0.00,,,0.00,Wunderground v.1.15,2013-07-13 16:30:00,
2013-07-13 12:35:00,75.3,67.6,30.06,ENE,64,3.0,-999.0,77,0.00,,,0.00,Wunderground v.1.15,2013-07-13 16:35:00,
2013-07-13 12:40:00,75.1,67.0,30.06,ENE,64,3.0,-999.0,76,0.00,,,0.00,Wunderground v.1.15,2013-07-13 16:40:00,
2013-07-13 12:50:00,74.8,67.1,30.06,ENE,64,3.0,-999.0,77,0.00,,,0.00,Wunderground v.1.15,2013-07-13 16:50:00,
2013-07-13 12:55:00,74.6,66.9,30.06,ENE,64,3.0,-999.0,77,0.00,,,0.00,Wunderground v.1.15,2013-07-13 16:55:00,
2013-07-13 13:00:00,74.4,67.5,30.06,ENE,64,3.0,-999.0,79,0.00,,,0.00,Wunderground v.1.15,2013-07-13 17:00:00,
2013-07-13 13:10:00,74.1,67.5,30.06,ENE,64,2.0,-999.0,80,0.00,,,0.00,Wunderground v.1.15,2013-07-13 17:10:00,
2013-07-13 13:15:00,74.1,67.5,30.07,ENE,64,3.0,-999.0,80,0.00,,,0.00,Wunderground v.1.15,2013-07-13 17:15:00,
2013-07-13 13:20:00,73.9,67.7,30.06,ENE,64,3.0,-999.0,81,0.00,,,0.00,Wunderground v.1.15,2013-07-13 17:20:00,
2013-07-13 13:25:00,73.8,67.6,30.06,ENE,64,3.0,-999.0,81,0.00,,,0.00,Wunderground v.1.15,2013-07-13 17:25:00,
2013-07-13 13:30:00,73.8,67.6,30.06,ENE,64,3.0,-999.0,81,0.00,,,0.00,Wunderground v.1.15,2013-07-13 17:30:00,
2013-07-13 13:35:00,73.8,67.6,30.06,ENE,64,3.0,-999.0,81,0.00,,,0.00,Wunderground v.1.15,2013-07-13 17:35:00,
2013-07-13 13:40:00,73.8,67.6,30.06,ENE,64,4.0,-999.0,81,0.00,,,0.00,Wunderground v.1.15,2013-07-13 17:40:00,
2013-07-13 13:45:00,73.9,67.3,30.06,ENE,64,3.0,-999.0,80,0.00,,,0.00,Wunderground v.1.15,2013-07-13 17:45:00,
2013-07-13 13:50:00,74.0,67.4,30.06,ENE,64,3.0,-999.0,80,0.00,,,0.00,Wunderground v.1.15,2013-07-13 17:50:00,
2013-07-13 14:00:00,74.3,67.4,30.06,ENE,64,3.0,-999.0,79,0.00,,,0.00,Wunderground v.1.15,2013-07-13 18:00:00,
2013-07-13 14:10:00,74.8,67.8,30.06,ENE,64,3.0,-999.0,79,0.00,,,0.00,Wunderground v.1.15,2013-07-13 18:10:00,
2013-07-13 14:15:00,75.2,67.9,30.06,ENE,61,4.0,-999.0,78,0.00,,,0.00,Wunderground v.1.15,2013-07-13 18:15:00,
2013-07-13 14:20:00,75.3,68.3,30.06,ENE,59,4.0,-999.0,79,0.00,,,0.00,Wunderground v.1.15,2013-07-13 18:20:00,
2013-07-13 14:30:00,75.0,67.7,30.06,ENE,65,4.0,-999.0,78,0.00,,,0.00,Wunderground v.1.15,2013-07-13 18:30:00,
2013-07-13 14:35:00,74.8,67.8,30.06,ENE,69,4.0,-999.0,79,0.00,,,0.00,Wunderground v.1.15,2013-07-13 18:35:00,
2013-07-13 14:40:00,74.8,67.5,30.06,ENE,69,3.0,-999.0,78,0.00,,,0.00,Wunderground v.1.15,2013-07-13 18:40:00,
2013-07-13 14:45:00,74.6,67.7,30.06,ENE,69,3.0,-999.0,79,0.00,,,0.00,Wunderground v.1.15,2013-07-13 18:45:00,
2013-07-13 14:50:00,74.8,67.8,30.06,ENE,69,3.0,-999.0,79,0.00,,,0.00,Wunderground v.1.15,2013-07-13 18:50:00,
2013-07-13 14:55:00,74.9,67.6,30.06,ENE,69,3.0,-999.0,78,0.00,,,0.00,Wunderground v.1.15,2013-07-13 18:55:00,
2013-07-13 15:00:00,74.9,67.9,30.06,ENE,69,3.0,-999.0,79,0.00,,,0.00,Wunderground v.1.15,2013-07-13 19:00:00,
2013-07-13 15:10:00,74.5,67.9,30.06,ENE,69,2.0,-999.0,80,0.00,,,0.00,Wunderground v.1.15,2013-07-13 19:10:00,
2013-07-13 15:15:00,74.2,68.0,30.06,ENE,69,2.0,-999.0,81,0.00,,,0.00,Wunderground v.1.15,2013-07-13 19:15:00,
2013-07-13 15:20:00,73.9,68.1,30.06,ENE,69,3.0,-999.0,82,0.00,,,0.00,Wunderground v.1.15,2013-07-13 19:20:00,
2013-07-13 15:25:00,73.7,68.2,30.06,ENE,69,2.0,-999.0,83,0.00,,,0.00,Wunderground v.1.15,2013-07-13 19:25:00,
2013-07-13 15:35:00,73.5,68.4,30.06,ENE,69,2.0,-999.0,84,0.00,,,0.00,Wunderground v.1.15,2013-07-13 19:35:00,
2013-07-13 15:40:00,73.3,68.5,30.06,ENE,69,1.0,-999.0,85,0.00,,,0.00,Wunderground v.1.15,2013-07-13 19:40:00,
2013-07-13 15:45:00,73.1,68.7,30.06,ENE,69,0.0,-999.0,86,0.00,,,0.00,Wunderground v.1.15,2013-07-13 19:45:00,
2013-07-13 15:50:00,72.9,68.5,30.06,ENE,69,0.0,-999.0,86,0.00,,,0.00,Wunderground v.1.15,2013-07-13 19:50:00,
2013-07-13 15:55:00,72.9,68.8,30.06,ENE,69,0.0,-999.0,87,0.00,,,0.00,Wunderground v.1.15,2013-07-13 19:55:00,
2013-07-13 16:00:00,72.9,68.5,30.06,ENE,69,0.0,-999.0,86,0.00,,,0.00,Wunderground v.1.15,2013-07-13 20:00:00,
2013-07-13 16:10:00,72.9,68.5,30.07,ENE,69,0.0,-999.0,86,0.00,,,0.00,Wunderground v.1.15,2013-07-13 20:10:00,
2013-07-13 16:15:00,73.0,68.6,30.06,ENE,69,0.0,-999.0,86,0.00,,,0.00,Wunderground v.1.15,2013-07-13 20:15:00,
2013-07-13 16:20:00,73.1,68.7,30.06,ENE,69,0.0,-999.0,86,0.00,,,0.00,Wunderground v.1.15,2013-07-13 20:20:00,
2013-07-13 16:25:00,73.3,68.9,30.06,ENE,69,0.0,-999.0,86,0.00,,,0.00,Wunderground v.1.15,2013-07-13 20:25:00,
2013-07-13 16:30:00,73.4,68.6,30.06,ENE,69,0.0,-999.0,85,0.00,,,0.00,Wunderground v.1.15,2013-07-13 20:30:00,
2013-07-13 16:40:00,73.5,69.1,30.06,ENE,69,2.0,-999.0,86,0.00,,,0.00,Wunderground v.1.15,2013-07-13 20:40:00,
2013-07-13 16:45:00,73.4,69.3,30.06,ENE,69,2.0,-999.0,87,0.00,,,0.00,Wunderground v.1.15,2013-07-13 20:45:00,
2013-07-13 16:50:00,73.3,69.5,30.06,ENE,69,2.0,-999.0,88,0.00,,,0.00,Wunderground v.1.15,2013-07-13 20:50:00,
2013-07-13 16:55:00,73.3,69.5,30.06,ENE,69,2.0,-999.0,88,0.00,,,0.00,Wunderground v.1.15,2013-07-13 20:55:00,
2013-07-13 17:00:00,73.4,69.6,30.06,ENE,69,1.0,-999.0,88,0.00,,,0.00,Wunderground v.1.15,2013-07-13 21:00:00,
2013-07-13 17:10:00,73.8,69.0,30.06,ENE,69,1.0,-999.0,85,0.00,,,0.00,Wunderground v.1.15,2013-07-13 21:10:00,
2013-07-13 17:15:00,73.9,69.1,30.06,ENE,69,1.0,-999.0,85,0.00,,,0.00,Wunderground v.1.15,2013-07-13 21:15:00,
2013-07-13 17:20:00,74.2,69.4,30.06,ENE,69,1.0,-999.0,85,0.00,,,0.00,Wunderground v.1.15,2013-07-13 21:20:00,
2013-07-13 17:25:00,74.5,69.3,30.06,ENE,69,1.0,-999.0,84,0.00,,,0.00,Wunderground v.1.15,2013-07-13 21:25:00,
2013-07-13 17:30:00,74.5,69.0,30.06,ENE,69,2.0,-999.0,83,0.00,,,0.00,Wunderground v.1.15,2013-07-13 21:30:00,
2013-07-13 17:35:00,74.6,69.4,30.06,ENE,69,2.0,-999.0,84,0.00,,,0.00,Wunderground v.1.15,2013-07-13 21:35:00,
2013-07-13 17:45:00,74.7,69.5,30.07,ENE,69,3.0,-999.0,84,0.00,,,0.00,Wunderground v.1.15,2013-07-13 21:45:00,
2013-07-13 17:50:00,74.6,69.4,30.07,ENE,69,3.0,-999.0,84,0.00,,,0.00,Wunderground v.1.15,2013-07-13 21:50:00,
2013-07-13 17:55:00,74.5,69.3,30.07,ENE,69,3.0,-999.0,84,0.00,,,0.00,Wunderground v.1.15,2013-07-13 21:55:00,
2013-07-13 18:00:00,74.4,69.2,30.07,ENE,69,3.0,-999.0,84,0.00,,,0.00,Wunderground v.1.15,2013-07-13 22:00:00,
2013-07-13 18:10:00,74.3,69.1,30.07,ENE,69,2.0,-999.0,84,0.00,,,0.00,Wunderground v.1.15,2013-07-13 22:10:00,
2013-07-13 18:20:00,74.4,69.2,30.06,ENE,69,2.0,-999.0,84,0.00,,,0.00,Wunderground v.1.15,2013-07-13 22:20:00,
2013-07-13 18:25:00,74.4,69.6,30.06,ENE,69,2.0,-999.0,85,0.00,,,0.00,Wunderground v.1.15,2013-07-13 22:25:00,
2013-07-13 18:30:00,74.4,69.6,30.06,ENE,69,2.0,-999.0,85,0.00,,,0.00,Wunderground v.1.15,2013-07-13 22:30:00,
2013-07-13 18:35:00,74.4,69.6,30.06,ENE,69,2.0,-999.0,85,0.00,,,0.00,Wunderground v.1.15,2013-07-13 22:35:00,
2013-07-13 18:40:00,74.4,69.6,30.06,ENE,69,2.0,-999.0,85,0.00,,,0.00,Wunderground v.1.15,2013-07-13 22:40:00,
2013-07-13 18:50:00,74.4,69.6,30.06,ENE,69,1.0,-999.0,85,0.00,,,0.00,Wunderground v.1.15,2013-07-13 22:50:00,
2013-07-13 18:55:00,74.4,69.6,30.06,ENE,69,1.0,-999.0,85,0.00,,,0.00,Wunderground v.1.15,2013-07-13 22:55:00,
2013-07-13 19:00:00,74.3,69.5,30.06,ENE,69,1.0,-999.0,85,0.00,,,0.00,Wunderground v.1.15,2013-07-13 23:00:00,
2013-07-13 19:10:00,74.4,69.6,30.06,ENE,69,0.0,-999.0,85,0.00,,,0.00,Wunderground v.1.15,2013-07-13 23:10:00,
2013-07-13 19:15:00,74.4,69.6,30.06,ENE,69,0.0,-999.0,85,0.00,,,0.00,Wunderground v.1.15,2013-07-13 23:15:00,
2013-07-13 19:25:00,74.4,69.6,30.07,ENE,69,1.0,-999.0,85,0.00,,,0.00,Wunderground v.1.15,2013-07-13 23:25:00,
2013-07-13 19:30:00,74.4,69.9,30.07,ENE,69,0.0,-999.0,86,0.00,,,0.00,Wunderground v.1.15,2013-07-13 23:30:00,
2013-07-13 19:35:00,74.4,69.9,30.07,ENE,69,0.0,-999.0,86,0.00,,,0.00,Wunderground v.1.15,2013-07-13 23:35:00,
2013-07-13 19:40:00,74.4,69.9,30.07,ENE,69,0.0,-999.0,86,0.00,,,0.00,Wunderground v.1.15,2013-07-13 23:40:00,
2013-07-13 19:45:00,74.4,69.9,30.07,ENE,69,0.0,-999.0,86,0.00,,,0.00,Wunderground v.1.15,2013-07-13 23:45:00,
2013-07-13 19:50:00,74.3,69.8,30.07,ENE,69,0.0,-999.0,86,0.00,,,0.00,Wunderground v.1.15,2013-07-13 23:50:00,
2013-07-13 19:55:00,74.2,69.7,30.07,ENE,69,0.0,-999.0,86,0.00,,,0.00,Wunderground v.1.15,2013-07-13 23:55:00,
2013-07-13 20:00:00,74.2,69.7,30.07,ENE,69,0.0,-999.0,86,0.00,,,0.00,Wunderground v.1.15,2013-07-14 00:00:00,
2013-07-13 20:10:00,74.3,69.8,30.07,ENE,69,0.0,-999.0,86,0.00,,,0.00,Wunderground v.1.15,2013-07-14 00:10:00,
2013-07-13 20:15:00,74.3,70.2,30.07,ENE,69,0.0,-999.0,87,0.00,,,0.00,Wunderground v.1.15,2013-07-14 00:15:00,
2013-07-13 20:20:00,74.2,70.1,30.08,ENE,69,0.0,-999.0,87,0.00,,,0.00,Wunderground v.1.15,2013-07-14 00:20:00,
2013-07-13 20:25:00,74.0,70.2,30.07,ENE,69,0.0,-999.0,88,0.00,,,0.00,Wunderground v.1.15,2013-07-14 00:25:00,
2013-07-13 20:30:00,74.0,70.2,30.08,ENE,69,0.0,-999.0,88,0.00,,,0.00,Wunderground v.1.15,2013-07-14 00:30:00,
2013-07-13 20:35:00,73.9,69.8,30.07,ENE,69,0.0,-999.0,87,0.00,,,0.00,Wunderground v.1.15,2013-07-14 00:35:00,
2013-07-13 20:40:00,73.8,69.7,30.07,ENE,69,0.0,-999.0,87,0.00,,,0.00,Wunderground v.1.15,2013-07-14 00:40:00,
2013-07-13 20:50:00,73.6,69.5,30.07,ENE,69,0.0,-999.0,87,0.00,,,0.00,Wunderground v.1.15,2013-07-14 00:50:00,
2013-07-13 20:55:00,73.5,69.7,30.07,ENE,69,0.0,-999.0,88,0.00,,,0.00,Wunderground v.1.15,2013-07-14 00:55:00,
2013-07-13 21:00:00,73.4,69.6,30.07,ENE,69,0.0,-999.0,88,0.00,,,0.00,Wunderground v.1.15,2013-07-14 01:00:00,
2013-07-13 21:10:00,73.3,69.5,30.08,ENE,69,0.0,-999.0,88,0.00,,,0.00,Wunderground v.1.15,2013-07-14 01:10:00,
2013-07-13 21:15:00,73.3,69.5,30.08,ENE,69,0.0,-999.0,88,0.00,,,0.00,Wunderground v.1.15,2013-07-14 01:15:00,
2013-07-13 21:20:00,73.4,69.6,30.08,ENE,69,0.0,-999.0,88,0.00,,,0.00,Wunderground v.1.15,2013-07-14 01:20:00,
2013-07-13 21:25:00,73.3,69.5,30.08,ENE,69,0.0,-999.0,88,0.00,,,0.00,Wunderground v.1.15,2013-07-14 01:25:00,
2013-07-13 21:30:00,73.2,69.4,30.08,ENE,69,0.0,-999.0,88,0.00,,,0.00,Wunderground v.1.15,2013-07-14 01:30:00,
2013-07-13 21:35:00,73.1,69.3,30.08,ENE,69,0.0,-999.0,88,0.00,,,0.00,Wunderground v.1.15,2013-07-14 01:35:00,
2013-07-13 21:40:00,73.1,69.7,30.08,ENE,69,0.0,-999.0,89,0.00,,,0.00,Wunderground v.1.15,2013-07-14 01:40:00,
2013-07-13 21:45:00,73.1,69.7,30.08,ENE,69,0.0,-999.0,89,0.00,,,0.00,Wunderground v.1.15,2013-07-14 01:45:00,
2013-07-13 21:50:00,73.0,69.6,30.09,ENE,69,0.0,-999.0,89,0.00,,,0.00,Wunderground v.1.15,2013-07-14 01:50:00,
2013-07-13 21:55:00,72.9,69.5,30.09,ENE,69,0.0,-999.0,89,0.00,,,0.00,Wunderground v.1.15,2013-07-14 01:55:00,
2013-07-13 22:00:00,72.8,69.4,30.09,ENE,69,0.0,-999.0,89,0.00,,,0.00,Wunderground v.1.15,2013-07-14 02:00:00,
2013-07-13 22:10:00,72.7,69.3,30.09,ENE,69,0.0,-999.0,89,0.00,,,0.00,Wunderground v.1.15,2013-07-14 02:10:00,
2013-07-13 22:15:00,72.7,69.3,30.10,ENE,69,0.0,-999.0,89,0.00,,,0.00,Wunderground v.1.15,2013-07-14 02:15:00,
2013-07-13 22:20:00,72.6,69.2,30.10,ENE,69,0.0,-999.0,89,0.00,,,0.00,Wunderground v.1.15,2013-07-14 02:20:00,
2013-07-13 22:25:00,72.5,69.1,30.10,ENE,69,0.0,-999.0,89,0.00,,,0.00,Wunderground v.1.15,2013-07-14 02:25:00,
2013-07-13 22:35:00,72.2,69.1,30.10,ENE,69,0.0,-999.0,90,0.00,,,0.00,Wunderground v.1.15,2013-07-14 02:35:00,
2013-07-13 22:40:00,72.2,69.4,30.10,ENE,69,0.0,-999.0,91,0.00,,,0.00,Wunderground v.1.15,2013-07-14 02:40:00,
2013-07-13 22:45:00,72.2,69.4,30.10,ENE,69,1.0,-999.0,91,0.00,,,0.00,Wunderground v.1.15,2013-07-14 02:45:00,
2013-07-13 22:50:00,72.1,69.3,30.10,ENE,69,2.0,-999.0,91,0.00,,,0.00,Wunderground v.1.15,2013-07-14 02:50:00,
2013-07-13 22:55:00,71.9,69.1,30.10,ENE,69,3.0,-999.0,91,0.00,,,0.00,Wunderground v.1.15,2013-07-14 02:55:00,
2013-07-13 23:00:00,71.6,69.2,30.10,ENE,69,3.0,-999.0,92,0.00,,,0.00,Wunderground v.1.15,2013-07-14 03:00:00,
2013-07-13 23:10:00,70.8,68.4,30.10,ENE,69,3.0,-999.0,92,0.00,,,0.00,Wunderground v.1.15,2013-07-14 03:10:00,
2013-07-13 23:15:00,70.7,68.6,30.10,ENE,69,4.0,-999.0,93,0.00,,,0.00,Wunderground v.1.15,2013-07-14 03:15:00,
2013-07-13 23:20:00,70.7,68.6,30.10,ENE,69,4.0,-999.0,93,0.00,,,0.00,Wunderground v.1.15,2013-07-14 03:20:00,
2013-07-13 23:25:00,70.7,68.6,30.10,ENE,69,4.0,-999.0,93,0.00,,,0.00,Wunderground v.1.15,2013-07-14 03:25:00,
2013-07-13 23:30:00,70.7,68.6,30.10,ENE,69,4.0,-999.0,93,0.00,,,0.00,Wunderground v.1.15,2013-07-14 03:30:00,
2013-07-13 23:40:00,70.4,68.0,30.10,ENE,69,3.0,-999.0,92,0.00,,,0.00,Wunderground v.1.15,2013-07-14 03:40:00,
2013-07-13 23:45:00,70.2,67.8,30.10,ENE,69,4.0,-999.0,92,0.00,,,0.00,Wunderground v.1.15,2013-07-14 03:45:00,
2013-07-13 23:50:00,70.3,67.9,30.10,ENE,69,4.0,-999.0,92,0.00,,,0.00,Wunderground v.1.15,2013-07-14 03:50:00,
2013-07-13 23:55:00,70.6,68.2,30.10,ENE,69,5.0,-999.0,92,0.00,,,0.00,Wunderground v.1.15,2013-07-14 03:55:00,